createdAt,value
2023-02-15T00:03:04.215Z,29.1
2023-02-15T00:08:41.300Z,29.1
2023-02-15T00:14:18.547Z,29.1
2023-02-15T00:19:40.206Z,29
2023-02-15T00:25:17.373Z,29
2023-02-15T00:30:55.282Z,28.9
2023-02-15T00:36:33.262Z,28.9
2023-02-15T00:41:54.810Z,28.9
2023-02-15T00:47:17.229Z,28.8
2023-02-15T00:52:37.636Z,28.8
2023-02-15T00:58:15.928Z,28.8
2023-02-15T01:03:53.957Z,28.7
2023-02-15T01:09:32.713Z,28.7
2023-02-15T01:15:10.498Z,28.6
2023-02-15T01:20:48.505Z,28.6
2023-02-15T01:25:53.894Z,28.6
2023-02-15T01:31:16.046Z,28.5
2023-02-15T01:36:54.210Z,28.5
2023-02-15T01:42:30.595Z,28.4
2023-02-15T01:48:08.109Z,28.4
2023-02-15T01:53:46.755Z,28.4
2023-02-15T01:59:23.626Z,28.3
2023-02-15T02:04:45.750Z,28.4
2023-02-15T02:10:22.578Z,29
2023-02-15T02:15:59.649Z,29.4
2023-02-15T02:21:37.599Z,29.8
2023-02-15T02:27:00.116Z,30.2
2023-02-15T02:32:21.970Z,30.6
2023-02-15T02:37:28.156Z,31
2023-02-15T02:42:50.470Z,31.4
2023-02-15T02:48:27.856Z,31.8
2023-02-15T02:54:05.642Z,32.3
2023-02-15T02:59:43.174Z,32.8
2023-02-15T03:05:21.174Z,33.2
2023-02-15T03:10:57.982Z,33.7
2023-02-15T03:16:35.532Z,34.1
2023-02-15T03:22:12.385Z,34.3
2023-02-15T03:27:51.460Z,34.4
2023-02-15T03:33:29.757Z,34.6
2023-02-15T03:39:22.659Z,34.7
2023-02-15T03:44:44.857Z,34.8
2023-02-15T03:50:07.388Z,34.9
2023-02-15T03:55:28.392Z,34.9
2023-02-15T04:00:51.508Z,35
2023-02-15T04:06:29.456Z,35
2023-02-15T04:12:06.978Z,35.1
2023-02-15T04:17:31.336Z,35.1
2023-02-15T04:23:09.169Z,35.1
2023-02-15T04:28:31.877Z,35.1
2023-02-15T04:33:55.030Z,35.1
2023-02-15T04:39:32.132Z,35.1
2023-02-15T04:45:08.979Z,35
2023-02-15T04:50:47.783Z,34.9
2023-02-15T04:56:10.139Z,34.9
2023-02-15T05:01:46.313Z,34.9
2023-02-15T05:07:24.183Z,35
2023-02-15T05:13:01.552Z,35
2023-02-15T05:18:23.862Z,34.9
2023-02-15T05:24:01.143Z,34.9
2023-02-15T05:29:22.255Z,34.9
2023-02-15T05:34:46.513Z,34.9
2023-02-15T05:40:24.123Z,34.8
2023-02-15T05:46:01.378Z,34.8
2023-02-15T05:51:39.184Z,34.8
2023-02-15T05:56:45.012Z,34.9
2023-02-15T06:02:22.947Z,34.8
2023-02-15T06:08:04.531Z,34.8
2023-02-15T06:13:43.282Z,34.8
2023-02-15T06:19:20.831Z,34.6
2023-02-15T06:24:57.096Z,34.5
2023-02-15T06:30:34.003Z,34.4
2023-02-15T06:36:12.069Z,34.4
2023-02-15T06:41:49.775Z,34.3
2023-02-15T06:47:12.158Z,34.2
2023-02-15T06:52:49.553Z,34.1
2023-02-15T06:58:27.228Z,32.9
2023-02-15T07:04:04.969Z,31.1
2023-02-15T07:09:42.822Z,29.8
2023-02-15T07:15:19.933Z,29
2023-02-15T07:21:00.424Z,28.4
2023-02-15T07:26:37.560Z,28.1
2023-02-15T07:37:40.195Z,27.6
2023-02-15T07:43:17.925Z,27.4
2023-02-15T07:48:57.944Z,27.3
2023-02-15T07:54:20.743Z,27.1
2023-02-15T07:59:44.738Z,27.1
2023-02-15T08:05:07.080Z,27
2023-02-15T08:10:29.374Z,26.9
2023-02-15T08:16:07.567Z,26.8
2023-02-15T08:21:45.437Z,26.8
2023-02-15T08:27:23.543Z,26.8
2023-02-15T08:32:48.225Z,26.7
2023-02-15T08:38:25.554Z,26.6
2023-02-15T08:44:03.212Z,26.6
2023-02-15T08:49:24.639Z,26.6
2023-02-15T08:55:02.672Z,26.5
2023-02-15T09:00:40.874Z,26.4
2023-02-15T09:06:18.948Z,26.4
2023-02-15T09:11:40.052Z,26.4
2023-02-15T09:17:21.372Z,26.4
2023-02-15T09:22:59.919Z,26.3
2023-02-15T09:28:47.862Z,26.3
2023-02-15T09:34:26.940Z,26.3
2023-02-15T09:40:21.048Z,26.3
2023-02-15T09:45:58.840Z,26.2
2023-02-15T09:51:37.026Z,26.2
2023-02-15T09:57:13.963Z,26.1
2023-02-15T10:02:51.982Z,26.1
2023-02-15T10:08:13.780Z,26.1
2023-02-15T10:14:04.907Z,26.1
2023-02-15T10:19:28.614Z,26.1
2023-02-15T10:25:05.815Z,26.1
2023-02-15T10:30:42.938Z,26
2023-02-15T10:36:21.100Z,26
2023-02-15T10:41:28.536Z,25.9
2023-02-15T10:46:52.041Z,25.9
2023-02-15T10:52:32.749Z,25.9
2023-02-15T10:58:10.261Z,25.9
2023-02-15T11:03:48.042Z,45.9
2023-02-15T11:09:24.643Z,43.9
2023-02-15T11:15:06.225Z,41.1
2023-02-15T11:20:43.975Z,38.9
2023-02-15T11:26:20.949Z,48.4
2023-02-15T11:32:02.021Z,49.3
2023-02-15T11:37:24.547Z,50.7
2023-02-15T11:43:02.016Z,51.5
2023-02-15T11:48:26.178Z,52.1
2023-02-15T11:53:51.810Z,52.8
2023-02-15T11:59:14.434Z,53.4
2023-02-15T12:04:52.739Z,53.9
2023-02-15T12:10:29.842Z,54.4
2023-02-15T12:16:09.944Z,54.8
2023-02-15T12:21:49.133Z,55.1
2023-02-15T12:26:58.424Z,55.3
2023-02-15T12:32:23.199Z,55.6
2023-02-15T12:37:47.256Z,55.6
2023-02-15T12:43:31.468Z,55.8
2023-02-15T12:48:57.350Z,55.9
2023-02-15T12:54:56.657Z,55.9
2023-02-15T13:00:37.504Z,55.9
2023-02-15T13:06:17.749Z,55.9
2023-02-15T13:11:55.534Z,55.9
2023-02-15T13:17:17.311Z,55.8
2023-02-15T13:22:40.038Z,55.7
2023-02-15T13:28:31.398Z,55.4
2023-02-15T13:34:09.910Z,55.1
2023-02-15T13:40:01.204Z,54.8
2023-02-15T13:45:23.142Z,54.5
2023-02-15T13:51:15.378Z,54.1
2023-02-15T13:56:52.192Z,53.7
2023-02-15T14:02:13.751Z,52.9
2023-02-15T14:13:15.205Z,51.9
2023-02-15T14:18:45.141Z,51.4
2023-02-15T14:24:08.811Z,49
2023-02-15T14:29:49.001Z,45.6
2023-02-15T14:35:31.116Z,42.9
2023-02-15T14:41:09.554Z,40.8
2023-02-15T14:46:47.632Z,39.2
2023-02-15T14:52:25.267Z,37.9
2023-02-15T14:58:06.105Z,37
2023-02-15T15:03:43.544Z,36.2
2023-02-15T15:09:08.236Z,35.6
2023-02-15T15:15:03.863Z,34.9
2023-02-15T15:20:56.820Z,34.4
2023-02-15T15:26:34.547Z,33.9
2023-02-15T15:32:13.716Z,33.5
2023-02-15T15:37:50.364Z,33.1
2023-02-15T15:43:26.228Z,32.8
2023-02-15T15:48:57.245Z,32.4
2023-02-15T15:54:19.234Z,32.2
2023-02-15T15:59:42.011Z,31.9
2023-02-15T16:05:04.924Z,31.6
2023-02-15T16:10:42.061Z,31.3
2023-02-15T16:16:05.123Z,31
2023-02-15T16:21:43.313Z,30.7
2023-02-15T16:27:22.874Z,30.4
2023-02-15T16:33:00.562Z,30.1
2023-02-15T16:38:37.723Z,29.9
2023-02-15T16:44:01.019Z,29.7
2023-02-15T16:49:38.348Z,29.5
2023-02-15T16:55:16.650Z,29.3
2023-02-15T17:00:53.772Z,29.1
2023-02-15T17:06:38.733Z,29
2023-02-15T17:12:04.721Z,28.8
2023-02-15T17:17:44.005Z,28.7
2023-02-15T17:23:06.996Z,28.6
2023-02-15T17:28:45.434Z,28.4
2023-02-15T17:34:25.539Z,28.3
2023-02-15T17:40:02.777Z,28.2
2023-02-15T17:45:40.546Z,28.1
2023-02-15T17:51:19.308Z,28
2023-02-15T17:56:58.767Z,27.9
2023-02-15T18:07:43.710Z,27.8
2023-02-15T18:13:21.137Z,27.7
2023-02-15T18:18:58.729Z,27.6
2023-02-15T18:24:36.481Z,27.5
2023-02-15T18:30:12.636Z,27.4
2023-02-15T18:35:51.244Z,27.4
2023-02-15T18:41:28.682Z,27.3
2023-02-15T18:47:07.009Z,27.3
2023-02-15T18:52:43.978Z,27.2
2023-02-15T18:58:21.034Z,27.1
2023-02-15T19:03:58.054Z,27.1
2023-02-15T19:09:19.416Z,27
2023-02-15T19:14:58.872Z,27
2023-02-15T19:20:36.990Z,26.9
2023-02-15T19:26:13.629Z,26.9
2023-02-15T19:32:08.094Z,26.8
2023-02-15T19:37:45.356Z,26.8
2023-02-15T19:43:23.972Z,26.8
2023-02-15T19:49:04.686Z,26.7
2023-02-15T19:54:44.621Z,26.7
2023-02-15T20:00:37.984Z,26.6
2023-02-15T20:06:00.576Z,26.6
2023-02-15T20:11:52.928Z,26.6
2023-02-15T20:17:29.993Z,26.4
2023-02-15T20:23:08.837Z,26.3
2023-02-15T20:28:45.559Z,26.3
2023-02-15T20:34:24.584Z,26.3
2023-02-15T20:40:03.485Z,26.3
2023-02-15T20:45:40.821Z,26.3
2023-02-15T20:51:19.521Z,26.2
2023-02-15T20:56:56.774Z,26.2
2023-02-15T21:02:34.152Z,26.1
2023-02-15T21:08:12.104Z,26.1
2023-02-15T21:13:18.462Z,26.1
2023-02-15T21:18:55.549Z,26.1
2023-02-15T21:24:32.615Z,26.1
2023-02-15T21:29:54.107Z,26
2023-02-15T21:35:32.382Z,25.9
2023-02-15T21:40:54.008Z,25.9
2023-02-15T21:46:17.631Z,25.9
2023-02-15T21:51:39.764Z,25.9
2023-02-15T21:57:17.152Z,25.8
2023-02-15T22:08:17.624Z,25.8
2023-02-15T22:13:38.942Z,25.8
2023-02-15T22:19:16.314Z,25.8
2023-02-15T22:24:53.098Z,25.7
2023-02-15T22:30:29.886Z,25.6
2023-02-15T22:35:52.984Z,25.6
2023-02-15T22:41:30.332Z,25.6
2023-02-15T22:47:08.804Z,25.6
2023-02-15T22:52:33.935Z,25.6
2023-02-15T22:57:55.684Z,25.5
2023-02-15T23:03:18.147Z,25.5
2023-02-15T23:08:25.080Z,25.4
2023-02-15T23:13:31.486Z,25.4
2023-02-15T23:18:38.294Z,25.4
2023-02-15T23:23:59.693Z,25.4
2023-02-15T23:29:22.532Z,25.4
2023-02-15T23:34:45.998Z,25.4
2023-02-15T23:40:08.540Z,25.3
2023-02-15T23:45:45.756Z,25.3
2023-02-15T23:51:23.255Z,25.2
2023-02-15T23:57:00.393Z,25
